createdAt,value
2019-06-26T19:51:53.014Z,26.79
2019-06-26T19:52:52.963Z,26.79
2019-06-26T19:53:52.963Z,26.79
2019-06-26T19:54:52.953Z,26.79
2019-06-26T19:55:52.958Z,26.76
2019-06-26T19:56:52.945Z,26.76
2019-06-26T19:57:52.922Z,26.73
2019-06-26T19:58:52.958Z,26.69
2019-06-26T19:59:52.937Z,26.65
2019-06-26T20:00:52.915Z,26.64
2019-06-26T20:01:52.862Z,26.61
2019-06-26T20:02:52.906Z,26.59
2019-06-26T20:03:52.832Z,26.58
2019-06-26T20:04:52.860Z,26.55
2019-06-26T20:05:52.846Z,26.54
2019-06-26T20:06:52.817Z,26.50
2019-06-26T20:07:52.806Z,26.47
2019-06-26T20:08:57.326Z,26.44
2019-06-26T20:09:52.858Z,26.44
2019-06-26T20:10:52.833Z,26.43
2019-06-26T20:11:52.766Z,26.42
2019-06-26T20:12:52.736Z,26.37
2019-06-26T20:13:52.794Z,26.37
2019-06-26T20:14:52.820Z,26.36
2019-06-26T20:15:52.736Z,26.35
2019-06-26T20:16:52.727Z,26.35
2019-06-26T20:17:52.774Z,26.32
2019-06-26T20:18:52.779Z,26.29
2019-06-26T20:19:52.688Z,26.31
2019-06-26T20:20:52.718Z,26.28
2019-06-26T20:21:52.773Z,26.29
2019-06-26T20:22:52.698Z,26.29
2019-06-26T20:23:52.693Z,26.28
2019-06-26T20:24:52.698Z,26.27
2019-06-26T20:25:52.643Z,26.27
2019-06-26T20:26:52.600Z,26.27
2019-06-26T20:27:56.986Z,26.28
2019-06-26T20:28:52.578Z,26.32
2019-06-26T20:29:52.559Z,26.40
2019-06-26T20:30:52.569Z,26.44
2019-06-26T20:31:52.588Z,26.46
2019-06-26T20:32:52.624Z,26.46
2019-06-26T20:33:52.510Z,26.46
2019-06-26T20:34:52.521Z,26.46
2019-06-26T20:35:52.520Z,26.44
2019-06-26T20:36:52.519Z,26.46
2019-06-26T20:37:52.470Z,26.46
2019-06-26T20:38:52.460Z,26.47
2019-06-26T20:39:52.472Z,26.49
2019-06-26T20:40:52.457Z,26.44
2019-06-26T20:41:52.450Z,26.43
2019-06-26T20:42:52.414Z,26.40
2019-06-26T20:43:52.423Z,26.37
2019-06-26T20:44:52.405Z,26.37
2019-06-26T20:45:52.397Z,26.35
2019-06-26T20:46:52.438Z,26.32
2019-06-26T20:47:52.362Z,26.28
2019-06-26T20:48:52.352Z,26.28
2019-06-26T20:49:53.604Z,26.29
2019-06-26T20:50:52.326Z,26.31
2019-06-26T20:51:52.354Z,26.32
2019-06-26T20:52:52.305Z,26.31
2019-06-26T20:53:52.312Z,26.31
2019-06-26T20:55:01.127Z,26.29
2019-06-26T20:55:53.305Z,26.31
2019-06-26T20:56:52.285Z,26.29
2019-06-26T20:57:52.530Z,26.28
2019-06-26T20:58:52.446Z,26.29
2019-06-26T20:59:52.243Z,26.27
2019-06-26T21:00:52.233Z,26.24
2019-06-26T21:01:52.214Z,26.22
2019-06-26T21:02:54.281Z,26.18
2019-06-26T21:03:52.263Z,26.20
2019-06-26T21:04:52.201Z,26.20
2019-06-26T21:05:52.165Z,26.18
2019-06-26T21:06:52.157Z,26.17
2019-06-26T21:07:52.175Z,26.15
2019-06-26T21:08:52.174Z,26.12
2019-06-26T21:09:52.149Z,26.09
2019-06-26T21:10:52.115Z,26.08
2019-06-26T21:11:52.103Z,26.08
2019-06-26T21:12:52.123Z,26.05
2019-06-26T21:13:52.101Z,26.05
2019-06-26T21:14:52.069Z,26.06
2019-06-26T21:15:53.071Z,26.06
2019-06-26T21:16:52.067Z,26.08
2019-06-26T21:17:52.068Z,26.09
2019-06-26T21:18:52.040Z,26.08
2019-06-26T21:19:52.045Z,26.08
2019-06-26T21:20:52.018Z,26.05
2019-06-26T21:21:52.078Z,26.04
2019-06-26T21:22:52.056Z,26.02
2019-06-26T21:23:51.986Z,25.99
2019-06-26T21:24:51.964Z,25.99
2019-06-26T21:25:51.956Z,25.98
2019-06-26T21:26:51.941Z,25.98
2019-06-26T21:27:51.983Z,25.97
2019-06-26T21:28:51.921Z,25.97
2019-06-26T21:29:51.909Z,25.94
2019-06-26T21:30:51.950Z,25.94
2019-06-26T21:31:51.881Z,25.91
2019-06-26T21:32:51.974Z,25.87
2019-06-26T21:33:51.971Z,25.86
2019-06-26T21:34:51.871Z,25.86
2019-06-26T21:35:51.837Z,25.86
2019-06-26T21:36:51.838Z,25.84
2019-06-26T21:37:51.877Z,25.86
2019-06-26T21:38:51.825Z,25.86
2019-06-26T21:39:51.803Z,25.86
2019-06-26T21:40:51.895Z,25.87
2019-06-26T21:41:51.811Z,25.86
2019-06-26T21:42:51.779Z,25.87
2019-06-26T21:43:51.776Z,25.84
2019-06-26T21:44:51.761Z,25.82
2019-06-26T21:45:51.761Z,25.83
2019-06-26T21:46:51.780Z,25.82
2019-06-26T21:47:51.719Z,25.82
2019-06-26T21:48:51.766Z,25.82
2019-06-26T21:49:51.759Z,25.80
2019-06-26T21:50:51.689Z,25.80
2019-06-26T21:51:51.688Z,25.77
2019-06-26T21:52:51.711Z,25.77
2019-06-26T21:53:51.877Z,25.75
2019-06-26T21:54:51.691Z,25.71
2019-06-26T21:55:51.641Z,25.71
2019-06-26T21:56:51.694Z,25.71
2019-06-26T21:57:51.633Z,25.71
2019-06-26T21:58:51.733Z,25.71
2019-06-26T21:59:51.681Z,25.68
2019-06-26T22:00:51.664Z,25.69
2019-06-26T22:01:51.636Z,25.69
2019-06-26T22:02:51.637Z,25.67
2019-06-26T22:03:51.672Z,25.68
2019-06-26T22:04:51.593Z,25.68
2019-06-26T22:05:51.603Z,25.67
2019-06-26T22:06:51.649Z,25.65
2019-06-26T22:07:51.598Z,25.65
2019-06-26T22:08:51.534Z,25.65
2019-06-26T22:09:51.602Z,25.64
2019-06-26T22:10:51.536Z,25.65
2019-06-26T22:11:51.482Z,25.65
2019-06-26T22:12:51.528Z,25.62
2019-06-26T22:13:51.514Z,25.64
2019-06-26T22:14:51.472Z,25.64
2019-06-26T22:15:51.453Z,25.64
2019-06-26T22:16:51.436Z,25.64
2019-06-26T22:17:51.415Z,25.64
2019-06-26T22:18:51.433Z,25.57
2019-06-26T22:19:51.423Z,25.56
2019-06-26T22:20:51.395Z,25.53
2019-06-26T22:21:51.403Z,25.49
2019-06-26T22:22:51.404Z,25.46
2019-06-26T22:23:51.357Z,25.43
2019-06-26T22:24:51.375Z,25.39
2019-06-26T22:25:51.602Z,25.38
2019-06-26T22:26:51.301Z,25.35
2019-06-26T22:27:51.305Z,25.32
2019-06-26T22:28:51.314Z,25.28
2019-06-26T22:29:51.328Z,25.25
2019-06-26T22:30:51.324Z,25.20
2019-06-26T22:31:51.308Z,25.17
2019-06-26T22:32:51.257Z,25.12
2019-06-26T22:33:51.276Z,25.06
2019-06-26T22:34:51.255Z,25.02
2019-06-26T22:35:51.277Z,25.01
2019-06-26T22:36:52.262Z,24.95
2019-06-26T22:37:51.227Z,24.94
2019-06-26T22:38:51.197Z,24.92
2019-06-26T22:39:51.208Z,24.91
2019-06-26T22:40:51.290Z,24.91
2019-06-26T22:41:51.160Z,24.91
2019-06-26T22:42:51.179Z,24.91
2019-06-26T22:43:51.129Z,24.90
2019-06-26T22:44:51.126Z,24.92
2019-06-26T22:45:51.106Z,24.90
2019-06-26T22:46:51.121Z,24.87
2019-06-26T22:47:51.098Z,24.87
2019-06-26T22:48:51.091Z,24.87
2019-06-26T22:49:51.099Z,24.87
2019-06-26T22:50:51.069Z,24.87
2019-06-26T22:51:51.190Z,24.90
2019-06-26T22:52:51.036Z,24.87
2019-06-26T22:53:51.116Z,24.87
2019-06-26T22:54:51.010Z,24.85
2019-06-26T22:56:06.432Z,24.83
2019-06-26T22:56:51.970Z,24.83
2019-06-26T22:57:50.983Z,24.79
2019-06-26T22:58:50.964Z,24.79
2019-06-26T22:59:50.970Z,24.77
2019-06-26T23:00:50.965Z,24.76
2019-06-26T23:01:50.976Z,24.76
2019-06-26T23:02:50.902Z,24.80
2019-06-26T23:03:50.914Z,24.79
2019-06-26T23:04:50.912Z,24.80
2019-06-26T23:05:50.900Z,24.80
2019-06-26T23:06:50.872Z,24.80
2019-06-26T23:07:50.884Z,24.79
2019-06-26T23:08:50.858Z,24.79
2019-06-26T23:09:50.853Z,24.75
2019-06-26T23:10:50.852Z,24.71
2019-06-26T23:11:50.823Z,24.68
2019-06-26T23:12:50.801Z,24.63
2019-06-26T23:13:50.806Z,24.60
2019-06-26T23:14:50.801Z,24.56
2019-06-26T23:15:50.799Z,24.54
2019-06-26T23:16:50.754Z,24.53
2019-06-26T23:17:50.762Z,24.50
2019-06-26T23:18:50.726Z,24.45
2019-06-26T23:19:50.803Z,24.42
2019-06-26T23:20:50.768Z,24.39
2019-06-26T23:21:50.728Z,24.35
2019-06-26T23:22:50.711Z,24.34
2019-06-26T23:23:50.665Z,24.32
2019-06-26T23:24:50.709Z,24.27
2019-06-26T23:25:50.863Z,24.26
2019-06-26T23:26:50.682Z,24.24
2019-06-26T23:27:50.632Z,24.22
2019-06-26T23:28:50.646Z,24.17
2019-06-26T23:29:50.606Z,24.17
2019-06-26T23:30:50.624Z,24.14
2019-06-26T23:31:50.639Z,24.12
2019-06-26T23:32:50.624Z,24.10
2019-06-26T23:33:50.589Z,24.10
2019-06-26T23:34:50.565Z,24.08
2019-06-26T23:35:50.544Z,24.07
2019-06-26T23:36:50.585Z,24.05
2019-06-26T23:37:50.547Z,24.02
2019-06-26T23:38:50.520Z,24.02
2019-06-26T23:39:50.504Z,24.04
2019-06-26T23:40:50.519Z,24.01
2019-06-26T23:41:50.505Z,24.00
2019-06-26T23:42:50.467Z,24.01
2019-06-26T23:43:50.479Z,24.04
2019-06-26T23:44:50.469Z,24.07
2019-06-26T23:45:50.442Z,24.07
2019-06-26T23:46:50.457Z,24.08
2019-06-26T23:47:50.418Z,24.12
2019-06-26T23:48:50.448Z,24.08
2019-06-26T23:49:50.401Z,24.08
2019-06-26T23:50:50.392Z,24.10
2019-06-26T23:51:50.397Z,24.12
2019-06-26T23:52:50.351Z,24.13
2019-06-26T23:53:50.359Z,24.13
2019-06-26T23:54:50.369Z,24.13
2019-06-26T23:55:50.348Z,24.13
2019-06-26T23:56:50.338Z,24.13
2019-06-26T23:57:59.126Z,24.13
2019-06-26T23:58:51.297Z,24.10
2019-06-26T23:59:50.281Z,24.08
